Time;durP1;ratioP1;P1;durP2;ratioP2;P2;SDS_P1;SDS_P2;PMS_P1;PMS_P2;Temp;Humidity;BMP_temperature;BMP_pressure;BME280_temperature;BME280_humidity;BME280_pressure;Samples;Min_cycle;Max_cycle;Signal;HPM_P1;HPM_P2
2022/07/18 00:00:49;;;;;;;6.00;2.83;;;;;;;;;;4955321;28;20229;-67
2022/07/18 00:03:15;;;;;;;19.92;12.77;;;;;;;;;;4954173;28;20038;-66
2022/07/18 00:05:42;;;;;;;9.65;6.28;;;;;;;;;;4955086;28;20125;-67
2022/07/18 00:08:09;;;;;;;20.42;15.48;;;;;;;;;;4955852;28;20604;-67
2022/07/18 00:10:35;;;;;;;22.63;15.45;;;;;;;;;;4956744;28;20050;-67
2022/07/18 00:13:02;;;;;;;12.30;3.88;;;;;;;;;;4955382;28;20124;-67
2022/07/18 00:15:29;;;;;;;6.78;2.90;;;;;;;;;;4955500;28;20539;-66
2022/07/18 00:17:55;;;;;;;5.55;2.33;;;;;;;;;;4954755;28;20509;-66
2022/07/18 00:20:22;;;;;;;4.95;2.25;;;;;;;;;;4954373;28;20097;-67
2022/07/18 00:22:49;;;;;;;6.63;2.08;;;;;;;;;;4954315;28;20077;-67
2022/07/18 00:25:15;;;;;;;3.70;1.70;;;;;;;;;;4955098;28;20053;-66
2022/07/18 00:27:42;;;;;;;3.70;1.55;;;;;;;;;;4954001;28;20268;-65
2022/07/18 00:30:09;;;;;;;4.80;1.75;;;;;;;;;;4956088;28;20063;-67
2022/07/18 00:32:36;;;;;;;5.32;1.67;;;;;;;;;;4955899;28;20050;-66
2022/07/18 00:35:02;;;;;;;5.45;2.30;;;;;;;;;;4955071;28;20043;-66
2022/07/18 00:37:29;;;;;;;4.20;1.83;;;;;;;;;;4954330;28;20043;-67
2022/07/18 00:39:56;;;;;;;5.68;2.08;;;;;;;;;;4955745;28;20451;-66
2022/07/18 00:42:22;;;;;;;6.82;1.65;;;;;;;;;;4954601;28;20528;-66
2022/07/18 00:44:53;;;;;;;3.97;1.98;;;;;;;;;;4953866;28;20098;-66
2022/07/18 00:47:20;;;;;;;4.20;1.77;;;;;;;;;;4950049;28;20233;-68
2022/07/18 00:49:46;;;;;;;5.72;2.40;;;;;;;;;;4961514;28;20049;-67
2022/07/18 00:52:14;;;;;;;5.78;2.45;;;;;;;;;;4958183;28;20043;-66
2022/07/18 00:54:41;;;;;;;4.57;1.90;;;;;;;;;;4953622;28;20039;-67
2022/07/18 00:57:07;;;;;;;3.92;1.75;;;;;;;;;;4954719;28;20465;-68
2022/07/18 01:02:19;;;;;;;5.95;1.80;;;;;;;;;;4949695;28;20089;-66
2022/07/18 01:04:46;;;;;;;5.07;1.60;;;;;;;;;;4971288;28;20039;-66
2022/07/18 01:07:12;;;;;;;4.03;1.98;;;;;;;;;;4972032;28;20058;-66
2022/07/18 01:09:39;;;;;;;6.25;2.90;;;;;;;;;;4969211;28;20627;-66
2022/07/18 01:12:06;;;;;;;4.80;2.25;;;;;;;;;;4957250;28;20042;-66
2022/07/18 01:14:33;;;;;;;4.32;1.83;;;;;;;;;;4951785;28;20051;-66
2022/07/18 01:17:00;;;;;;;4.07;1.85;;;;;;;;;;4954483;28;20036;-66
2022/07/18 01:19:26;;;;;;;7.57;2.35;;;;;;;;;;4955648;28;20043;-67
2022/07/18 01:21:53;;;;;;;3.75;1.60;;;;;;;;;;4952676;28;20039;-67
2022/07/18 01:24:20;;;;;;;3.65;1.75;;;;;;;;;;4954358;28;20043;-67
2022/07/18 01:26:47;;;;;;;3.90;1.60;;;;;;;;;;4953730;28;20145;-67
2022/07/18 01:29:14;;;;;;;3.88;1.77;;;;;;;;;;4953891;28;20093;-66
2022/07/18 01:31:40;;;;;;;3.80;1.55;;;;;;;;;;4953283;28;20612;-67
2022/07/18 01:34:07;;;;;;;4.70;1.50;;;;;;;;;;4953439;28;20070;-65
2022/07/18 01:36:33;;;;;;;3.90;1.40;;;;;;;;;;4950788;28;20241;-66
2022/07/18 01:39:00;;;;;;;4.13;1.25;;;;;;;;;;4953840;28;20035;-66
2022/07/18 01:41:27;;;;;;;9.60;1.50;;;;;;;;;;4978774;28;20060;-66
2022/07/18 01:43:53;;;;;;;5.05;1.63;;;;;;;;;;4951999;28;20043;-66
2022/07/18 01:46:20;;;;;;;4.93;1.85;;;;;;;;;;4952238;28;20126;-66
2022/07/18 01:48:47;;;;;;;4.95;1.67;;;;;;;;;;4951658;28;20149;-66
2022/07/18 01:51:13;;;;;;;5.15;2.60;;;;;;;;;;4950740;28;20089;-67
2022/07/18 01:53:41;;;;;;;4.75;2.00;;;;;;;;;;4949865;28;20039;-68
2022/07/18 01:56:08;;;;;;;4.65;1.80;;;;;;;;;;4951986;28;20074;-67
2022/07/18 01:58:34;;;;;;;3.53;1.30;;;;;;;;;;4951171;28;20030;-66
2022/07/18 02:01:01;;;;;;;4.07;1.33;;;;;;;;;;4949742;28;20042;-66
2022/07/18 02:03:28;;;;;;;3.78;1.45;;;;;;;;;;4952391;28;20058;-65
2022/07/18 02:05:54;;;;;;;8.68;1.80;;;;;;;;;;4954087;28;20057;-66
2022/07/18 02:08:21;;;;;;;8.60;1.60;;;;;;;;;;4952114;28;20042;-66
2022/07/18 02:10:48;;;;;;;5.13;1.92;;;;;;;;;;4954383;28;20048;-67
2022/07/18 02:13:16;;;;;;;5.28;1.88;;;;;;;;;;4950215;28;20073;-67
2022/07/18 02:15:43;;;;;;;5.40;1.65;;;;;;;;;;4952520;28;20046;-62
2022/07/18 02:18:10;;;;;;;8.88;3.10;;;;;;;;;;4952605;28;20528;-66
2022/07/18 02:20:38;;;;;;;7.50;2.30;;;;;;;;;;4951619;28;20070;-67
2022/07/18 02:23:07;;;;;;;8.52;2.05;;;;;;;;;;4956919;28;20046;-68
2022/07/18 02:25:34;;;;;;;3.35;1.40;;;;;;;;;;4952488;28;20134;-67
2022/07/18 02:28:01;;;;;;;5.55;1.60;;;;;;;;;;4952600;28;20035;-66
2022/07/18 02:30:28;;;;;;;4.38;1.60;;;;;;;;;;4971202;28;20043;-67
2022/07/18 02:32:55;;;;;;;6.55;2.38;;;;;;;;;;4951060;28;20062;-66
2022/07/18 02:35:21;;;;;;;6.63;1.50;;;;;;;;;;4952708;28;20042;-66
2022/07/18 02:37:48;;;;;;;4.53;1.77;;;;;;;;;;4964942;28;20126;-68
2022/07/18 02:40:14;;;;;;;5.93;1.70;;;;;;;;;;4950671;28;20046;-68
2022/07/18 02:42:41;;;;;;;3.92;1.60;;;;;;;;;;4950109;28;20078;-67
2022/07/18 02:45:08;;;;;;;4.25;1.50;;;;;;;;;;4951573;28;20058;-68
2022/07/18 02:47:35;;;;;;;5.13;1.40;;;;;;;;;;4949707;28;20386;-68
2022/07/18 02:50:02;;;;;;;4.25;1.58;;;;;;;;;;4954316;28;20043;-68
2022/07/18 02:52:28;;;;;;;5.55;1.70;;;;;;;;;;4957041;28;20042;-68
2022/07/18 02:54:56;;;;;;;5.93;1.65;;;;;;;;;;4950162;28;20129;-59
2022/07/18 02:57:23;;;;;;;5.07;1.90;;;;;;;;;;4951548;28;21019;-66
2022/07/18 02:59:53;;;;;;;4.35;1.50;;;;;;;;;;4951467;28;20089;-67
2022/07/18 03:02:19;;;;;;;7.35;1.83;;;;;;;;;;4978252;28;20046;-67
2022/07/18 03:04:46;;;;;;;3.95;1.60;;;;;;;;;;4949929;28;20039;-67
2022/07/18 03:07:13;;;;;;;4.75;1.50;;;;;;;;;;4951398;28;20105;-67
2022/07/18 03:09:39;;;;;;;3.70;1.42;;;;;;;;;;4950989;28;20061;-67
2022/07/18 03:12:06;;;;;;;4.85;1.50;;;;;;;;;;4950666;28;20035;-67
2022/07/18 03:14:34;;;;;;;5.65;1.48;;;;;;;;;;4950887;28;20054;-67
2022/07/18 03:17:01;;;;;;;4.70;1.60;;;;;;;;;;4950084;28;20126;-67
2022/07/18 03:19:28;;;;;;;6.70;1.80;;;;;;;;;;4950069;28;20039;-66
2022/07/18 03:21:54;;;;;;;4.07;1.52;;;;;;;;;;4974004;28;20049;-66
2022/07/18 03:24:21;;;;;;;6.88;1.70;;;;;;;;;;4953583;28;20073;-65
2022/07/18 03:26:48;;;;;;;5.60;1.60;;;;;;;;;;4953235;28;20214;-66
2022/07/18 03:29:14;;;;;;;7.70;1.73;;;;;;;;;;4952901;28;20155;-69
2022/07/18 03:31:41;;;;;;;7.97;2.13;;;;;;;;;;4953378;28;20157;-67
2022/07/18 03:34:08;;;;;;;7.97;2.95;;;;;;;;;;4955523;28;20047;-67
2022/07/18 03:36:35;;;;;;;10.65;1.85;;;;;;;;;;4955677;28;20102;-65
2022/07/18 03:39:02;;;;;;;8.00;1.95;;;;;;;;;;4957129;28;20059;-67
2022/07/18 03:41:28;;;;;;;7.15;1.80;;;;;;;;;;4953104;28;20070;-62
2022/07/18 03:43:55;;;;;;;15.82;6.90;;;;;;;;;;4958225;28;20169;-67
2022/07/18 03:46:24;;;;;;;8.18;2.40;;;;;;;;;;4954476;28;20086;-66
2022/07/18 03:48:51;;;;;;;10.05;2.40;;;;;;;;;;4953749;28;20125;-64
2022/07/18 03:51:18;;;;;;;8.02;1.92;;;;;;;;;;4981473;28;20093;-64
2022/07/18 03:53:44;;;;;;;5.32;1.80;;;;;;;;;;4955804;28;20049;-66
2022/07/18 03:56:11;;;;;;;5.38;1.75;;;;;;;;;;4964386;28;20096;-66
2022/07/18 03:58:38;;;;;;;4.88;1.80;;;;;;;;;;4953932;28;20043;-65
2022/07/18 04:01:07;;;;;;;6.15;1.80;;;;;;;;;;4954197;28;20574;-65
2022/07/18 04:03:34;;;;;;;7.82;1.88;;;;;;;;;;4951230;28;20126;-65
2022/07/18 04:06:00;;;;;;;7.63;1.55;;;;;;;;;;4954973;28;20043;-65
2022/07/18 04:08:27;;;;;;;6.72;1.70;;;;;;;;;;4953844;28;20576;-65
2022/07/18 04:10:55;;;;;;;4.82;1.77;;;;;;;;;;4952924;28;20932;-65
2022/07/18 04:13:22;;;;;;;5.60;1.60;;;;;;;;;;4967294;28;20103;-64
2022/07/18 04:15:49;;;;;;;3.47;1.42;;;;;;;;;;4954445;28;20035;-65
2022/07/18 04:18:15;;;;;;;3.88;1.55;;;;;;;;;;4954970;28;20050;-65
2022/07/18 04:20:47;;;;;;;5.25;1.50;;;;;;;;;;4951723;28;20047;-64
2022/07/18 04:23:14;;;;;;;4.20;1.63;;;;;;;;;;4955992;28;20054;-65
2022/07/18 04:25:42;;;;;;;4.70;1.55;;;;;;;;;;4953036;28;20062;-64
2022/07/18 04:28:12;;;;;;;6.25;1.55;;;;;;;;;;4954286;28;20210;-64
2022/07/18 04:33:06;;;;;;;5.43;2.50;;;;;;;;;;5022136;28;20811;-67
2022/07/18 04:35:35;;;;;;;5.75;1.63;;;;;;;;;;4995055;28;20033;-67
2022/07/18 04:38:02;;;;;;;5.20;1.50;;;;;;;;;;4996996;28;20425;-65
2022/07/18 04:40:29;;;;;;;4.40;1.48;;;;;;;;;;4996244;28;20038;-68
2022/07/18 04:42:55;;;;;;;9.55;2.55;;;;;;;;;;4996606;28;20045;-66
2022/07/18 04:45:23;;;;;;;4.65;1.77;;;;;;;;;;4997213;28;20089;-65
2022/07/18 04:47:50;;;;;;;4.13;2.00;;;;;;;;;;4998532;28;20069;-64
2022/07/18 04:50:20;;;;;;;3.58;1.35;;;;;;;;;;4995989;28;20442;-64
2022/07/18 04:52:47;;;;;;;4.50;1.40;;;;;;;;;;4994909;28;20060;-64
2022/07/18 04:55:14;;;;;;;3.67;1.40;;;;;;;;;;4998602;28;20096;-67
2022/07/18 04:57:41;;;;;;;4.47;1.50;;;;;;;;;;4995594;28;20038;-64
2022/07/18 05:00:10;;;;;;;4.75;1.60;;;;;;;;;;4996445;28;20295;-65
2022/07/18 05:02:40;;;;;;;4.55;1.55;;;;;;;;;;4995306;28;20196;-65
2022/07/18 05:05:07;;;;;;;6.03;1.80;;;;;;;;;;4996667;28;20533;-65
2022/07/18 05:07:33;;;;;;;3.53;1.63;;;;;;;;;;4995639;28;20431;-65
2022/07/18 05:10:00;;;;;;;3.42;1.58;;;;;;;;;;4996914;28;20049;-64
2022/07/18 05:12:27;;;;;;;3.45;1.38;;;;;;;;;;4995384;28;20048;-65
2022/07/18 05:14:54;;;;;;;8.38;1.83;;;;;;;;;;4995996;28;20436;-64
2022/07/18 05:17:21;;;;;;;7.32;1.55;;;;;;;;;;5010206;28;20054;-65
2022/07/18 05:19:47;;;;;;;5.15;1.42;;;;;;;;;;4996305;28;20064;-65
2022/07/18 05:22:17;;;;;;;4.07;1.48;;;;;;;;;;4996252;28;20137;-65
2022/07/18 05:24:44;;;;;;;6.00;2.42;;;;;;;;;;4995329;28;20080;-65
2022/07/18 05:27:10;;;;;;;5.93;1.95;;;;;;;;;;4997458;28;20515;-65
2022/07/18 05:29:37;;;;;;;4.68;1.67;;;;;;;;;;4993265;28;20045;-66
2022/07/18 05:32:04;;;;;;;4.68;1.70;;;;;;;;;;4994689;28;20410;-66
2022/07/18 05:34:30;;;;;;;5.07;1.48;;;;;;;;;;4996249;28;20153;-67
2022/07/18 05:36:57;;;;;;;3.35;1.30;;;;;;;;;;4996435;28;20798;-67
2022/07/18 05:39:24;;;;;;;5.13;1.70;;;;;;;;;;4994002;28;20145;-65
2022/07/18 05:41:50;;;;;;;4.45;1.45;;;;;;;;;;4994043;28;20605;-64
2022/07/18 05:44:19;;;;;;;6.97;1.67;;;;;;;;;;4984576;28;20043;-64
2022/07/18 05:46:46;;;;;;;6.63;1.70;;;;;;;;;;4982013;28;20133;-63
2022/07/18 05:49:13;;;;;;;5.15;1.50;;;;;;;;;;4983293;28;20049;-65
2022/07/18 05:51:40;;;;;;;3.85;1.42;;;;;;;;;;4982093;28;20794;-65
2022/07/18 05:54:08;;;;;;;4.50;1.45;;;;;;;;;;4982747;28;20641;-64
2022/07/18 05:56:35;;;;;;;5.28;1.73;;;;;;;;;;4982231;28;20491;-65
2022/07/18 05:59:01;;;;;;;7.15;1.95;;;;;;;;;;4983397;28;20048;-65
2022/07/18 06:01:28;;;;;;;4.50;1.50;;;;;;;;;;4981715;28;20053;-64
2022/07/18 06:03:55;;;;;;;4.05;1.55;;;;;;;;;;4982608;28;20184;-64
2022/07/18 06:06:23;;;;;;;4.03;1.50;;;;;;;;;;4983004;28;20093;-64
2022/07/18 06:08:50;;;;;;;5.70;1.58;;;;;;;;;;4986130;28;21083;-65
2022/07/18 06:11:16;;;;;;;4.80;1.60;;;;;;;;;;4982262;28;20814;-65
2022/07/18 06:13:43;;;;;;;4.82;1.30;;;;;;;;;;4980763;28;20042;-65
2022/07/18 06:16:10;;;;;;;5.72;1.58;;;;;;;;;;4983441;28;20058;-66
2022/07/18 06:18:36;;;;;;;7.60;1.63;;;;;;;;;;4983073;28;20062;-66
2022/07/18 06:21:04;;;;;;;4.20;1.52;;;;;;;;;;4995534;28;20045;-64
2022/07/18 06:23:31;;;;;;;5.35;1.80;;;;;;;;;;4982330;28;20133;-64
2022/07/18 06:25:58;;;;;;;4.60;1.70;;;;;;;;;;4997189;28;20073;-65
2022/07/18 06:28:25;;;;;;;5.05;2.10;;;;;;;;;;4981993;28;20145;-64
2022/07/18 06:30:52;;;;;;;4.63;1.80;;;;;;;;;;4984307;28;20033;-65
2022/07/18 06:33:19;;;;;;;3.88;1.70;;;;;;;;;;4983204;28;20153;-65
2022/07/18 06:35:46;;;;;;;5.25;1.73;;;;;;;;;;4981688;28;20044;-64
2022/07/18 06:38:13;;;;;;;5.03;1.92;;;;;;;;;;4983221;28;20088;-65
2022/07/18 06:40:40;;;;;;;6.60;1.75;;;;;;;;;;4981470;28;20081;-64
2022/07/18 06:43:06;;;;;;;4.63;1.70;;;;;;;;;;4982000;28;20189;-64
2022/07/18 06:45:33;;;;;;;6.20;1.65;;;;;;;;;;4981136;28;20165;-64
2022/07/18 06:48:00;;;;;;;4.03;1.80;;;;;;;;;;4982710;28;22039;-64
2022/07/18 06:50:27;;;;;;;7.13;2.10;;;;;;;;;;4981464;28;20053;-63
2022/07/18 06:52:53;;;;;;;4.32;1.58;;;;;;;;;;4981873;28;20104;-65
2022/07/18 06:55:20;;;;;;;3.88;1.50;;;;;;;;;;4981162;28;20034;-64
2022/07/18 06:57:47;;;;;;;3.42;1.50;;;;;;;;;;4982277;28;20096;-64
2022/07/18 07:00:15;;;;;;;6.40;2.40;;;;;;;;;;4982264;28;20459;-65
2022/07/18 07:02:42;;;;;;;6.30;2.05;;;;;;;;;;4980451;28;20550;-65
2022/07/18 07:05:10;;;;;;;6.03;2.83;;;;;;;;;;4982273;28;20129;-65
2022/07/18 07:07:36;;;;;;;4.68;2.00;;;;;;;;;;4980544;28;20057;-65
2022/07/18 07:10:03;;;;;;;12.60;1.95;;;;;;;;;;5013466;28;20034;-65
2022/07/18 07:12:30;;;;;;;6.15;2.13;;;;;;;;;;4981683;28;20050;-65
2022/07/18 07:14:56;;;;;;;9.45;2.13;;;;;;;;;;4981425;28;20039;-65
2022/07/18 07:17:23;;;;;;;5.88;2.05;;;;;;;;;;4980772;28;20049;-65
2022/07/18 07:19:50;;;;;;;6.13;1.90;;;;;;;;;;4981557;28;20125;-65
2022/07/18 07:22:16;;;;;;;7.65;2.10;;;;;;;;;;4982480;28;20602;-65
2022/07/18 07:24:43;;;;;;;5.88;2.15;;;;;;;;;;4981204;28;20049;-65
2022/07/18 07:27:09;;;;;;;4.85;1.90;;;;;;;;;;4982354;28;20049;-65
2022/07/18 07:29:36;;;;;;;5.07;1.80;;;;;;;;;;4980322;28;20188;-65
2022/07/18 07:32:03;;;;;;;5.55;1.90;;;;;;;;;;4980858;28;20050;-65
2022/07/18 07:34:30;;;;;;;5.63;1.80;;;;;;;;;;4981060;28;20051;-65
2022/07/18 07:36:57;;;;;;;5.25;1.75;;;;;;;;;;4981853;28;20093;-65
2022/07/18 07:39:23;;;;;;;5.13;2.05;;;;;;;;;;4981153;28;20854;-64
2022/07/18 07:41:50;;;;;;;6.45;1.60;;;;;;;;;;4980963;28;20134;-64
2022/07/18 07:44:17;;;;;;;5.18;2.00;;;;;;;;;;4980279;28;20125;-63
2022/07/18 07:46:43;;;;;;;5.70;2.50;;;;;;;;;;4981321;28;20040;-63
2022/07/18 07:49:10;;;;;;;5.05;2.35;;;;;;;;;;4982560;28;20169;-63
2022/07/18 07:51:36;;;;;;;5.88;2.00;;;;;;;;;;4979276;28;20565;-63
2022/07/18 07:54:05;;;;;;;5.03;1.60;;;;;;;;;;4979997;28;20062;-64
2022/07/18 07:56:32;;;;;;;4.28;1.70;;;;;;;;;;4981101;28;20039;-63
2022/07/18 07:59:00;;;;;;;5.53;1.90;;;;;;;;;;4981069;28;20591;-64
2022/07/18 08:01:27;;;;;;;7.53;2.08;;;;;;;;;;4978733;28;20382;-64
2022/07/18 08:03:54;;;;;;;4.65;1.75;;;;;;;;;;4981433;28;20042;-65
2022/07/18 08:06:21;;;;;;;3.80;1.70;;;;;;;;;;4980679;28;20133;-65
2022/07/18 08:08:47;;;;;;;5.10;1.98;;;;;;;;;;4979756;28;20125;-64
2022/07/18 08:11:14;;;;;;;4.18;1.73;;;;;;;;;;4980192;28;20061;-65
2022/07/18 08:13:41;;;;;;;7.35;2.40;;;;;;;;;;4980217;28;20123;-65
2022/07/18 08:16:08;;;;;;;6.85;2.10;;;;;;;;;;4981188;28;20035;-67
2022/07/18 08:18:59;;;;;;;4.88;2.00;;;;;;;;;;5356041;23;20361;-67
2022/07/18 08:21:28;;;;;;;5.75;2.03;;;;;;;;;;4981632;23;20060;-64
2022/07/18 08:23:54;;;;;;;5.85;2.00;;;;;;;;;;5015550;28;20052;-64
2022/07/18 08:26:21;;;;;;;5.28;2.15;;;;;;;;;;5016183;28;20048;-64
2022/07/18 08:28:47;;;;;;;5.53;1.95;;;;;;;;;;5018532;28;20758;-64
2022/07/18 08:31:14;;;;;;;6.80;2.05;;;;;;;;;;5019210;28;20131;-64
2022/07/18 08:33:41;;;;;;;4.43;1.95;;;;;;;;;;5018311;28;20752;-65
2022/07/18 08:36:08;;;;;;;5.28;1.77;;;;;;;;;;5019643;28;20167;-65
2022/07/18 08:38:34;;;;;;;5.45;2.10;;;;;;;;;;5019921;28;20040;-64
2022/07/18 08:41:01;;;;;;;4.50;2.10;;;;;;;;;;5018364;28;20124;-64
2022/07/18 08:43:28;;;;;;;5.28;2.20;;;;;;;;;;5019913;28;20029;-65
2022/07/18 08:45:56;;;;;;;4.57;2.00;;;;;;;;;;5019301;28;20049;-65
2022/07/18 08:48:24;;;;;;;5.45;2.63;;;;;;;;;;5018277;28;20132;-64
2022/07/18 08:50:50;;;;;;;5.22;2.30;;;;;;;;;;5018311;28;20037;-65
2022/07/18 08:53:18;;;;;;;5.65;1.90;;;;;;;;;;5020064;28;20188;-64
2022/07/18 08:55:45;;;;;;;5.25;2.05;;;;;;;;;;5018614;28;20042;-65
2022/07/18 08:58:12;;;;;;;8.02;2.63;;;;;;;;;;5019080;28;20071;-64
2022/07/18 09:00:39;;;;;;;5.75;2.25;;;;;;;;;;5018436;28;20040;-65
2022/07/18 09:03:05;;;;;;;5.88;2.10;;;;;;;;;;5018674;28;20406;-64
2022/07/18 09:05:33;;;;;;;4.72;1.95;;;;;;;;;;5019074;28;20119;-63
2022/07/18 09:08:25;;;;;;;4.78;2.03;;;;;;;;;;5019622;28;20037;-64
2022/07/18 09:10:52;;;;;;;5.78;2.28;;;;;;;;;;5017658;28;20536;-64
2022/07/18 09:13:20;;;;;;;5.80;2.10;;;;;;;;;;5019859;28;20053;-64
2022/07/18 09:16:02;;;;;;;8.13;2.53;;;;;;;;;;5019261;28;20066;-64
2022/07/18 09:18:29;;;;;;;10.38;2.40;;;;;;;;;;5020711;28;20068;-65
2022/07/18 09:21:00;;;;;;;4.25;2.10;;;;;;;;;;5038437;28;20126;-64
2022/07/18 09:23:31;;;;;;;6.95;2.35;;;;;;;;;;5022922;28;20049;-64
2022/07/18 09:25:59;;;;;;;5.30;2.50;;;;;;;;;;5023362;28;20056;-64
2022/07/18 09:28:26;;;;;;;5.45;2.67;;;;;;;;;;5022009;28;20068;-63
2022/07/18 09:30:53;;;;;;;6.18;2.58;;;;;;;;;;5021573;28;20484;-63
2022/07/18 09:33:22;;;;;;;6.28;2.63;;;;;;;;;;5022646;28;20030;-64
2022/07/18 09:35:50;;;;;;;5.65;2.72;;;;;;;;;;5022231;28;20398;-63
2022/07/18 09:38:20;;;;;;;5.68;2.88;;;;;;;;;;5021356;28;20030;-63
2022/07/18 09:40:49;;;;;;;4.93;2.75;;;;;;;;;;5021556;28;20034;-63
2022/07/18 09:43:16;;;;;;;6.20;2.50;;;;;;;;;;5022560;28;20689;-64
2022/07/18 09:45:47;;;;;;;6.60;2.65;;;;;;;;;;5020974;28;20033;-63
2022/07/18 09:48:15;;;;;;;5.95;2.75;;;;;;;;;;5022067;28;20099;-64
2022/07/18 09:50:44;;;;;;;8.15;2.63;;;;;;;;;;5020375;28;20052;-65
2022/07/18 09:53:11;;;;;;;6.47;2.83;;;;;;;;;;5022319;28;20053;-65
2022/07/18 09:55:42;;;;;;;5.72;2.83;;;;;;;;;;5022054;28;20037;-64
2022/07/18 09:58:09;;;;;;;6.15;2.70;;;;;;;;;;5022728;28;20942;-64
2022/07/18 10:00:36;;;;;;;7.35;3.10;;;;;;;;;;5020897;28;20153;-64
2022/07/18 10:03:04;;;;;;;6.15;2.83;;;;;;;;;;5022470;28;20037;-64
2022/07/18 10:05:32;;;;;;;6.00;2.95;;;;;;;;;;5036480;28;20052;-63
2022/07/18 10:08:00;;;;;;;8.13;2.80;;;;;;;;;;5022814;28;20048;-64
2022/07/18 10:10:27;;;;;;;5.82;3.05;;;;;;;;;;5021286;28;20045;-64
2022/07/18 10:12:55;;;;;;;8.02;2.95;;;;;;;;;;5021756;28;20049;-64
2022/07/18 10:15:23;;;;;;;5.25;2.58;;;;;;;;;;5022324;28;20091;-64
2022/07/18 10:17:50;;;;;;;5.75;2.75;;;;;;;;;;5021809;28;21390;-63
2022/07/18 10:20:16;;;;;;;5.88;2.72;;;;;;;;;;5019550;28;20163;-63
2022/07/18 10:22:44;;;;;;;5.88;2.78;;;;;;;;;;5021962;28;20108;-63
2022/07/18 10:25:14;;;;;;;4.85;2.33;;;;;;;;;;5022337;28;20440;-63
2022/07/18 10:27:59;;;;;;;5.78;2.90;;;;;;;;;;5020755;28;20048;-63
2022/07/18 10:30:33;;;;;;;4.68;2.40;;;;;;;;;;5020983;28;20064;-63
2022/07/18 10:33:00;;;;;;;4.95;2.60;;;;;;;;;;5021405;28;20053;-63
2022/07/18 10:35:46;;;;;;;7.13;2.67;;;;;;;;;;5021328;28;20350;-63
2022/07/18 10:38:22;;;;;;;6.10;2.67;;;;;;;;;;5022505;28;20311;-63
2022/07/18 10:41:15;;;;;;;5.93;2.75;;;;;;;;;;5020231;28;20076;-63
2022/07/18 10:43:43;;;;;;;6.30;2.70;;;;;;;;;;5021788;28;20813;-63
2022/07/18 10:46:11;;;;;;;5.10;2.67;;;;;;;;;;5021540;28;20048;-63
2022/07/18 10:48:40;;;;;;;5.45;2.88;;;;;;;;;;5021258;28;20508;-63
2022/07/18 10:51:12;;;;;;;4.82;2.63;;;;;;;;;;5020119;28;20084;-63
2022/07/18 10:53:57;;;;;;;6.10;3.00;;;;;;;;;;5020062;28;20037;-63
2022/07/18 10:56:29;;;;;;;9.02;3.70;;;;;;;;;;5019623;28;20045;-63
2022/07/18 10:58:56;;;;;;;8.38;3.20;;;;;;;;;;5021651;28;20133;-63
2022/07/18 11:01:24;;;;;;;7.53;3.00;;;;;;;;;;5034300;28;20179;-63
2022/07/18 11:03:50;;;;;;;5.45;2.83;;;;;;;;;;5021401;28;20078;-64
2022/07/18 11:06:17;;;;;;;5.72;2.90;;;;;;;;;;5021615;28;20138;-63
2022/07/18 11:08:44;;;;;;;6.63;3.28;;;;;;;;;;5020389;28;20063;-64
2022/07/18 11:11:11;;;;;;;6.28;3.13;;;;;;;;;;5019792;28;20119;-64
2022/07/18 11:13:39;;;;;;;6.78;3.35;;;;;;;;;;5021066;28;20076;-64
2022/07/18 11:16:16;;;;;;;6.50;3.20;;;;;;;;;;5021488;28;20049;-64
2022/07/18 11:18:43;;;;;;;8.52;3.90;;;;;;;;;;5021055;28;20090;-65
2022/07/18 11:21:26;;;;;;;6.60;3.53;;;;;;;;;;5019811;28;20049;-64
2022/07/18 11:23:54;;;;;;;6.55;3.85;;;;;;;;;;5020148;28;20068;-64
2022/07/18 11:26:22;;;;;;;7.20;4.07;;;;;;;;;;5020554;28;20100;-64
2022/07/18 11:28:49;;;;;;;5.88;3.53;;;;;;;;;;5020130;28;20107;-64
2022/07/18 11:31:16;;;;;;;10.00;4.05;;;;;;;;;;5021675;28;20192;-64
2022/07/18 11:33:48;;;;;;;6.97;3.53;;;;;;;;;;5020774;28;20076;-64
2022/07/18 11:36:16;;;;;;;6.03;3.33;;;;;;;;;;5019930;28;20112;-64
2022/07/18 11:38:49;;;;;;;8.40;4.07;;;;;;;;;;5019365;28;20045;-64
2022/07/18 11:41:16;;;;;;;6.47;3.50;;;;;;;;;;5020337;28;20129;-64
2022/07/18 11:43:46;;;;;;;5.72;3.40;;;;;;;;;;5020079;28;20049;-64
2022/07/18 11:46:14;;;;;;;7.10;3.97;;;;;;;;;;5020560;28;20045;-64
2022/07/18 11:48:41;;;;;;;6.40;3.60;;;;;;;;;;5020932;28;20433;-64
2022/07/18 11:51:19;;;;;;;5.63;3.22;;;;;;;;;;5020409;28;20120;-63
2022/07/18 11:53:50;;;;;;;5.93;3.60;;;;;;;;;;5019228;28;20049;-63
2022/07/18 11:56:17;;;;;;;7.05;3.67;;;;;;;;;;5021153;28;20396;-63
2022/07/18 11:58:45;;;;;;;11.07;4.18;;;;;;;;;;5019541;28;20041;-63
2022/07/18 12:01:12;;;;;;;6.05;3.13;;;;;;;;;;5018604;28;20079;-64
2022/07/18 12:03:41;;;;;;;7.25;3.67;;;;;;;;;;5020389;28;20639;-64
2022/07/18 12:06:21;;;;;;;7.72;3.60;;;;;;;;;;5019269;28;20103;-64
2022/07/18 12:08:48;;;;;;;5.82;3.30;;;;;;;;;;5019466;28;20583;-64
2022/07/18 12:11:20;;;;;;;6.45;3.40;;;;;;;;;;5017228;28;20053;-65
2022/07/18 12:13:47;;;;;;;8.02;3.53;;;;;;;;;;5018588;28;20064;-65
2022/07/18 12:16:31;;;;;;;6.00;3.00;;;;;;;;;;5019009;28;20145;-65
2022/07/18 12:19:07;;;;;;;6.30;3.25;;;;;;;;;;5018621;28;20493;-65
2022/07/18 12:21:53;;;;;;;7.05;3.65;;;;;;;;;;5017730;28;20473;-68
2022/07/18 12:24:23;;;;;;;7.30;3.15;;;;;;;;;;5021624;28;20770;-68
2022/07/18 12:26:50;;;;;;;5.68;3.13;;;;;;;;;;5017939;28;20037;-65
2022/07/18 12:29:16;;;;;;;7.30;3.15;;;;;;;;;;5020043;28;20552;-67
2022/07/18 12:31:46;;;;;;;6.47;3.20;;;;;;;;;;5017627;28;20103;-66
2022/07/18 12:34:14;;;;;;;6.45;3.50;;;;;;;;;;5020189;28;20037;-66
2022/07/18 12:36:51;;;;;;;7.47;3.58;;;;;;;;;;5018707;28;20037;-66
2022/07/18 12:39:27;;;;;;;9.30;3.95;;;;;;;;;;5020354;28;20107;-66
2022/07/18 12:41:54;;;;;;;7.38;3.72;;;;;;;;;;5017454;28;20043;-66
2022/07/18 12:44:21;;;;;;;8.75;3.53;;;;;;;;;;5019230;28;20087;-66
2022/07/18 12:46:47;;;;;;;6.30;3.25;;;;;;;;;;5021421;28;20734;-66
2022/07/18 12:49:14;;;;;;;6.03;3.28;;;;;;;;;;5022475;28;20474;-66
2022/07/18 12:51:41;;;;;;;6.28;3.33;;;;;;;;;;5023270;28;20135;-66
2022/07/18 12:54:08;;;;;;;6.82;3.50;;;;;;;;;;5041010;28;20045;-67
2022/07/18 12:56:35;;;;;;;7.18;3.65;;;;;;;;;;5022279;28;20347;-64
2022/07/18 12:59:02;;;;;;;9.20;3.70;;;;;;;;;;5024506;28;20116;-63
2022/07/18 13:01:28;;;;;;;7.20;3.83;;;;;;;;;;5022957;28;20537;-66
2022/07/18 13:03:55;;;;;;;7.22;3.33;;;;;;;;;;5021934;28;20056;-66
2022/07/18 13:06:22;;;;;;;8.10;3.40;;;;;;;;;;5023347;28;20061;-66
2022/07/18 13:08:48;;;;;;;6.38;3.70;;;;;;;;;;5024463;28;20042;-67
2022/07/18 13:11:15;;;;;;;6.43;3.40;;;;;;;;;;5023677;28;20052;-65
2022/07/18 13:13:42;;;;;;;7.22;3.88;;;;;;;;;;5023952;28;20049;-66
2022/07/18 13:16:08;;;;;;;7.70;3.72;;;;;;;;;;5025033;28;20045;-67
2022/07/18 13:18:35;;;;;;;9.20;4.15;;;;;;;;;;5024018;28;21024;-67
2022/07/18 13:21:02;;;;;;;7.60;4.55;;;;;;;;;;5022764;28;20057;-67
2022/07/18 13:23:28;;;;;;;7.10;3.78;;;;;;;;;;5023627;28;20064;-68
2022/07/18 13:25:55;;;;;;;9.20;3.47;;;;;;;;;;5024041;28;20210;-67
2022/07/18 13:28:21;;;;;;;6.68;3.65;;;;;;;;;;5023022;28;20030;-67
2022/07/18 13:30:48;;;;;;;7.72;3.95;;;;;;;;;;5022354;28;20038;-67
2022/07/18 13:33:15;;;;;;;7.75;3.65;;;;;;;;;;5025312;28;20057;-67
2022/07/18 13:35:41;;;;;;;7.55;3.33;;;;;;;;;;5022251;28;21795;-67
2022/07/18 13:38:08;;;;;;;6.60;3.60;;;;;;;;;;5024024;28;20173;-67
2022/07/18 13:40:35;;;;;;;8.77;3.40;;;;;;;;;;5022843;28;20038;-67
2022/07/18 13:43:01;;;;;;;7.10;3.83;;;;;;;;;;5023442;28;20102;-67
2022/07/18 13:45:28;;;;;;;8.23;3.63;;;;;;;;;;5024007;28;20052;-67
2022/07/18 13:47:54;;;;;;;6.57;3.33;;;;;;;;;;5023912;28;20068;-67
2022/07/18 13:50:21;;;;;;;11.68;4.00;;;;;;;;;;5021863;28;20117;-66
2022/07/18 13:52:48;;;;;;;7.57;3.55;;;;;;;;;;5023219;28;20049;-68
2022/07/18 13:55:14;;;;;;;6.55;3.38;;;;;;;;;;5024229;28;20040;-66
